createdAt,value
2018-09-28T00:01:10.365Z,65.76
2018-09-28T00:03:38.894Z,65.58
2018-09-28T00:06:07.477Z,64.92
2018-09-28T00:08:36.006Z,64.85
2018-09-28T00:11:04.643Z,64.93
2018-09-28T00:13:33.114Z,64.24
2018-09-28T00:16:01.716Z,65.17
2018-09-28T00:18:30.254Z,64.32
2018-09-28T00:20:58.814Z,64.92
2018-09-28T00:23:27.393Z,64.81
2018-09-28T00:25:55.981Z,64.57
2018-09-28T00:28:24.414Z,64.65
2018-09-28T00:30:52.868Z,64.17
2018-09-28T00:33:21.376Z,64.66
2018-09-28T00:35:49.968Z,64.97
2018-09-28T00:38:18.611Z,64.99
2018-09-28T00:40:47.129Z,64.46
2018-09-28T00:43:15.945Z,64.75
2018-09-28T00:45:44.576Z,64.46
2018-09-28T00:48:13.184Z,64.03
2018-09-28T00:50:41.641Z,64.55
2018-09-28T00:53:10.090Z,64.12
2018-09-28T00:55:38.590Z,63.43
2018-09-28T00:58:07.290Z,64.10
2018-09-28T01:00:35.689Z,63.16
2018-09-28T01:03:04.218Z,63.28
2018-09-28T01:05:32.673Z,63.14
2018-09-28T01:08:01.302Z,64.00
2018-09-28T01:10:29.958Z,64.14
2018-09-28T01:12:58.422Z,63.74
2018-09-28T01:15:26.869Z,62.91
2018-09-28T01:17:55.388Z,62.04
2018-09-28T01:20:23.948Z,61.63
2018-09-28T01:22:52.580Z,61.38
2018-09-28T01:25:21.165Z,61.17
2018-09-28T01:27:49.694Z,61.23
2018-09-28T01:30:18.148Z,61.12
2018-09-28T01:32:46.622Z,61.32
2018-09-28T01:35:15.221Z,61.48
2018-09-28T01:37:43.693Z,61.21
2018-09-28T01:40:12.264Z,61.20
2018-09-28T01:42:40.682Z,61.38
2018-09-28T01:45:09.115Z,61.59
2018-09-28T01:47:37.538Z,61.27
2018-09-28T01:50:05.988Z,60.10
2018-09-28T01:52:34.435Z,61.06
2018-09-28T01:55:02.766Z,60.66
2018-09-28T01:57:31.208Z,59.22
2018-09-28T01:59:59.633Z,59.39
2018-09-28T02:02:28.118Z,59.38
2018-09-28T02:04:56.734Z,59.76
2018-09-28T02:07:25.259Z,59.38
2018-09-28T02:09:53.619Z,59.57
2018-09-28T02:12:22.082Z,59.48
2018-09-28T02:14:50.459Z,60.53
2018-09-28T02:17:18.788Z,60.56
2018-09-28T02:19:47.251Z,60.63
2018-09-28T02:22:15.661Z,60.67
2018-09-28T02:24:44.089Z,60.65
2018-09-28T02:27:13.511Z,60.59
2018-09-28T02:29:42.001Z,59.74
2018-09-28T02:32:13.457Z,59.89
2018-09-28T02:34:41.835Z,59.58
2018-09-28T02:37:10.365Z,59.26
2018-09-28T02:39:38.764Z,59.33
2018-09-28T02:42:07.167Z,59.49
2018-09-28T02:44:35.585Z,58.89
2018-09-28T02:47:04.037Z,58.72
2018-09-28T02:49:32.434Z,58.57
2018-09-28T02:52:00.800Z,57.68
2018-09-28T02:54:29.224Z,57.06
2018-09-28T02:56:57.834Z,56.60
2018-09-28T02:59:26.269Z,56.61
2018-09-28T03:01:54.651Z,56.09
2018-09-28T03:04:22.997Z,56.69
2018-09-28T03:06:51.379Z,56.93
2018-09-28T03:09:19.812Z,56.71
2018-09-28T03:11:48.291Z,56.23
2018-09-28T03:14:16.637Z,55.37
2018-09-28T03:16:45.047Z,55.70
2018-09-28T03:19:13.642Z,55.64
2018-09-28T03:21:42.061Z,55.28
2018-09-28T03:24:10.568Z,53.66
2018-09-28T03:26:39.057Z,54.38
2018-09-28T03:29:07.456Z,53.79
2018-09-28T03:31:35.796Z,53.75
2018-09-28T03:34:04.222Z,53.47
2018-09-28T03:36:32.626Z,52.77
2018-09-28T03:39:01.080Z,52.43
2018-09-28T03:41:29.596Z,53.07
2018-09-28T03:43:57.944Z,53.07
2018-09-28T03:46:26.334Z,52.82
2018-09-28T03:48:54.936Z,52.98
2018-09-28T03:51:23.324Z,51.68
2018-09-28T03:53:51.700Z,51.93
2018-09-28T03:56:20.134Z,52.11
2018-09-28T03:58:48.544Z,52.85
2018-09-28T04:01:16.896Z,52.67
2018-09-28T04:03:45.323Z,52.72
2018-09-28T04:06:13.839Z,52.60
2018-09-28T04:08:42.285Z,52.09
2018-09-28T04:11:10.844Z,52.85
2018-09-28T04:13:39.346Z,52.67
2018-09-28T04:16:09.786Z,52.68
2018-09-28T04:18:38.324Z,52.98
2018-09-28T04:21:06.923Z,52.43
2018-09-28T04:23:35.291Z,52.77
2018-09-28T04:26:03.786Z,52.39
2018-09-28T04:28:32.227Z,51.78
2018-09-28T04:31:00.742Z,52.66
2018-09-28T04:33:29.435Z,52.90
2018-09-28T04:35:57.831Z,52.24
2018-09-28T04:38:26.283Z,51.79
2018-09-28T04:40:54.799Z,51.86
2018-09-28T04:43:23.209Z,52.41
2018-09-28T04:45:51.579Z,52.05
2018-09-28T04:48:20.171Z,51.98
2018-09-28T04:50:48.515Z,51.11
2018-09-28T04:53:17.120Z,51.48
2018-09-28T04:55:45.563Z,51.36
2018-09-28T04:58:14.215Z,51.88
2018-09-28T05:00:42.601Z,51.43
2018-09-28T05:03:10.925Z,51.17
2018-09-28T05:05:39.402Z,51.59
2018-09-28T05:08:07.767Z,51.02
2018-09-28T05:10:36.139Z,51.26
2018-09-28T05:13:04.589Z,51.35
2018-09-28T05:15:33.177Z,51.54
2018-09-28T05:18:01.521Z,51.78
2018-09-28T05:20:29.909Z,51.25
2018-09-28T05:22:58.438Z,51.35
2018-09-28T05:25:26.910Z,50.93
2018-09-28T05:27:55.254Z,51.96
2018-09-28T05:30:23.553Z,52.03
2018-09-28T05:32:52.338Z,51.83
2018-09-28T05:35:20.633Z,51.70
2018-09-28T05:37:51.863Z,51.10
2018-09-28T05:40:20.324Z,51.37
2018-09-28T05:42:48.742Z,51.06
2018-09-28T05:45:17.161Z,51.34
2018-09-28T05:47:52.405Z,51.22
2018-09-28T05:50:20.958Z,51.18
2018-09-28T05:52:49.326Z,51.31
2018-09-28T05:55:17.788Z,51.96
2018-09-28T05:57:46.288Z,51.71
2018-09-28T06:00:20.025Z,52.00
2018-09-28T06:02:53.735Z,51.87
2018-09-28T06:05:27.413Z,51.13
2018-09-28T06:07:55.819Z,51.74
2018-09-28T06:10:24.157Z,51.87
2018-09-28T06:12:52.600Z,51.19
2018-09-28T06:15:21.097Z,51.49
2018-09-28T06:17:49.896Z,51.32
2018-09-28T06:20:18.287Z,51.62
2018-09-28T06:22:46.676Z,51.82
2018-09-28T06:25:15.140Z,51.46
2018-09-28T06:27:43.595Z,51.33
2018-09-28T06:30:11.979Z,51.41
2018-09-28T06:32:40.409Z,51.25
2018-09-28T06:35:15.165Z,51.11
2018-09-28T06:37:43.676Z,51.22
2018-09-28T06:40:12.190Z,51.01
2018-09-28T06:42:40.645Z,51.48
2018-09-28T06:45:09.115Z,51.10
2018-09-28T06:47:37.653Z,51.13
2018-09-28T06:50:06.123Z,50.20
2018-09-28T06:52:34.790Z,50.57
2018-09-28T06:55:03.445Z,50.55
2018-09-28T06:57:32.178Z,50.18
2018-09-28T07:00:00.721Z,50.29
2018-09-28T07:02:29.304Z,48.24
2018-09-28T07:04:57.807Z,47.94
2018-09-28T07:07:26.316Z,48.43
2018-09-28T07:09:54.849Z,48.78
2018-09-28T07:12:23.455Z,48.17
2018-09-28T07:14:51.905Z,48.67
2018-09-28T07:17:20.310Z,48.07
2018-09-28T07:19:48.748Z,47.25
2018-09-28T07:22:17.146Z,47.85
2018-09-28T07:24:45.678Z,46.99
2018-09-28T07:27:14.166Z,47.74
2018-09-28T07:29:42.671Z,47.52
2018-09-28T07:32:11.176Z,47.10
2018-09-28T07:34:39.718Z,47.42
2018-09-28T07:37:08.310Z,47.30
2018-09-28T07:39:36.587Z,46.27
2018-09-28T07:42:05.051Z,46.59
2018-09-28T07:44:33.421Z,45.48
2018-09-28T07:47:01.859Z,45.95
2018-09-28T07:49:30.343Z,45.15
2018-09-28T07:51:58.806Z,45.28
2018-09-28T07:54:27.251Z,44.41
2018-09-28T07:56:55.686Z,44.51
2018-09-28T07:59:24.245Z,44.64
2018-09-28T08:01:52.788Z,44.78
2018-09-28T08:04:21.131Z,45.40
2018-09-28T08:06:49.583Z,45.08
2018-09-28T08:09:18.054Z,44.36
2018-09-28T08:11:46.441Z,43.35
2018-09-28T08:14:14.818Z,42.16
2018-09-28T08:16:43.341Z,42.64
2018-09-28T08:19:11.857Z,41.82
2018-09-28T08:21:40.283Z,41.08
2018-09-28T08:24:08.764Z,39.92
2018-09-28T08:26:37.154Z,40.23
2018-09-28T08:29:05.657Z,40.68
2018-09-28T08:31:34.096Z,40.42
2018-09-28T08:34:02.643Z,40.42
2018-09-28T08:36:31.425Z,39.08
2018-09-28T08:38:59.799Z,39.09
2018-09-28T08:41:28.375Z,39.44
2018-09-28T08:43:56.872Z,38.79
2018-09-28T08:46:25.373Z,37.56
2018-09-28T08:48:54.081Z,38.15
2018-09-28T08:51:22.462Z,38.09
2018-09-28T08:53:50.900Z,38.15
2018-09-28T08:56:19.263Z,38.84
2018-09-28T08:58:47.734Z,38.53
2018-09-28T09:01:16.173Z,38.21
2018-09-28T09:03:45.192Z,38.72
2018-09-28T09:06:13.832Z,38.99
2018-09-28T09:08:42.814Z,37.76
2018-09-28T09:11:12.770Z,38.97
2018-09-28T09:13:41.275Z,38.23
2018-09-28T09:16:09.755Z,39.03
2018-09-28T09:18:38.239Z,39.39
2018-09-28T09:21:06.828Z,39.20
2018-09-28T09:23:35.352Z,39.87
2018-09-28T09:26:04.839Z,39.76
2018-09-28T09:28:33.235Z,40.54
2018-09-28T09:31:01.667Z,40.19
2018-09-28T09:33:30.118Z,40.24
2018-09-28T09:35:58.523Z,39.94
2018-09-28T09:38:27.006Z,39.83
2018-09-28T09:40:55.447Z,39.81
2018-09-28T09:43:23.828Z,40.35
2018-09-28T09:45:52.207Z,40.63
2018-09-28T09:48:20.641Z,39.93
2018-09-28T09:50:48.998Z,40.14
2018-09-28T09:53:17.641Z,40.18
2018-09-28T09:55:45.997Z,40.64
2018-09-28T09:58:14.541Z,39.98
2018-09-28T10:00:48.428Z,39.56
2018-09-28T10:03:22.302Z,39.93
2018-09-28T10:05:50.767Z,38.62
2018-09-28T10:08:19.265Z,39.25
2018-09-28T10:10:47.764Z,39.69
2018-09-28T10:13:16.192Z,39.07
2018-09-28T10:15:44.537Z,38.59
2018-09-28T10:18:12.925Z,37.21
2018-09-28T10:20:41.363Z,36.64
2018-09-28T10:23:09.783Z,36.96
2018-09-28T10:25:38.222Z,36.33
2018-09-28T10:28:06.877Z,34.83
2018-09-28T10:30:35.258Z,35.56
2018-09-28T10:33:03.750Z,35.75
2018-09-28T10:35:32.265Z,36.01
2018-09-28T10:38:00.704Z,36.36
2018-09-28T10:40:29.345Z,36.19
2018-09-28T10:42:57.701Z,36.31
2018-09-28T10:45:26.089Z,35.70
2018-09-28T10:47:54.644Z,36.47
2018-09-28T10:50:23.229Z,35.85
2018-09-28T10:52:52.064Z,34.07
2018-09-28T10:55:20.420Z,34.54
2018-09-28T10:57:49.396Z,34.08
2018-09-28T11:00:17.874Z,33.96
2018-09-28T11:02:46.358Z,33.85
2018-09-28T11:05:14.874Z,33.07
2018-09-28T11:07:43.348Z,33.83
2018-09-28T11:10:11.748Z,34.06
2018-09-28T11:12:40.257Z,34.00
2018-09-28T11:15:08.789Z,34.30
2018-09-28T11:17:37.235Z,33.92
2018-09-28T11:20:06.016Z,34.78
2018-09-28T11:22:36.289Z,34.63
2018-09-28T11:25:04.908Z,35.93
2018-09-28T11:27:33.432Z,35.97
2018-09-28T11:30:01.849Z,37.11
2018-09-28T11:32:30.268Z,37.09
2018-09-28T11:34:58.736Z,37.66
2018-09-28T11:37:28.045Z,37.31
2018-09-28T11:39:56.596Z,37.04
2018-09-28T11:42:25.147Z,36.30
2018-09-28T11:44:53.698Z,36.02
2018-09-28T11:47:22.217Z,35.24
2018-09-28T11:49:50.780Z,35.32
2018-09-28T11:52:19.285Z,35.20
2018-09-28T11:54:47.773Z,36.04
2018-09-28T11:57:16.372Z,36.23
2018-09-28T11:59:45.091Z,36.51
2018-09-28T12:02:13.796Z,37.47
2018-09-28T12:04:42.519Z,37.62
2018-09-28T12:07:11.172Z,37.75
2018-09-28T12:09:40.207Z,37.60
2018-09-28T12:12:09.015Z,37.10
2018-09-28T12:14:37.630Z,37.01
2018-09-28T12:17:06.396Z,37.36
2018-09-28T12:19:34.978Z,37.41
2018-09-28T12:22:04.420Z,36.94
2018-09-28T12:24:33.127Z,37.19
2018-09-28T12:27:01.714Z,35.10
2018-09-28T12:29:30.389Z,34.45
2018-09-28T12:31:58.985Z,35.50
2018-09-28T12:34:27.664Z,36.93
2018-09-28T12:36:56.447Z,37.47
2018-09-28T12:39:27.973Z,37.79
2018-09-28T12:41:56.592Z,37.90
2018-09-28T12:44:25.694Z,36.47
2018-09-28T12:46:54.373Z,35.79
2018-09-28T12:49:22.899Z,36.02
2018-09-28T12:51:51.500Z,35.87
2018-09-28T12:54:20.024Z,35.60
2018-09-28T12:56:48.685Z,35.62
2018-09-28T12:59:17.155Z,35.27
2018-09-28T13:01:45.857Z,35.73
2018-09-28T13:04:18.109Z,35.98
2018-09-28T13:06:48.388Z,37.22
2018-09-28T13:09:17.165Z,37.09
2018-09-28T13:11:46.247Z,37.56
2018-09-28T13:14:14.984Z,37.78
2018-09-28T13:16:43.555Z,37.34
2018-09-28T13:19:12.199Z,37.27
2018-09-28T13:21:41.019Z,34.95
2018-09-28T13:24:09.682Z,33.50
2018-09-28T13:26:38.272Z,33.22
2018-09-28T13:29:07.023Z,33.45
2018-09-28T13:31:35.543Z,32.36
2018-09-28T13:34:04.204Z,33.17
2018-09-28T13:36:32.939Z,33.44
2018-09-28T13:39:02.087Z,33.82
2018-09-28T13:41:30.800Z,34.50
2018-09-28T13:43:59.506Z,34.02
2018-09-28T13:46:28.245Z,34.43
2018-09-28T13:48:56.879Z,35.21
2018-09-28T13:51:25.368Z,35.18
2018-09-28T13:53:54.176Z,35.40
2018-09-28T13:56:23.240Z,34.94
2018-09-28T13:58:51.651Z,37.02
2018-09-28T14:01:20.119Z,37.39
2018-09-28T14:03:48.573Z,36.94
2018-09-28T14:06:17.152Z,37.90
2018-09-28T14:08:45.733Z,36.61
2018-09-28T14:11:14.243Z,36.33
2018-09-28T14:13:42.765Z,37.07
2018-09-28T14:16:11.298Z,36.47
2018-09-28T14:18:39.696Z,37.41
2018-09-28T14:21:08.273Z,37.14
2018-09-28T14:23:36.993Z,38.30
2018-09-28T14:26:05.450Z,38.86
2018-09-28T14:28:34.090Z,39.51
2018-09-28T14:31:02.583Z,38.71
2018-09-28T14:33:31.211Z,37.97
2018-09-28T14:35:59.695Z,38.42
2018-09-28T14:38:28.187Z,38.82
2018-09-28T14:40:56.881Z,39.39
2018-09-28T14:43:25.428Z,39.76
2018-09-28T14:45:53.833Z,40.53
2018-09-28T14:48:23.246Z,42.15
2018-09-28T14:50:51.691Z,45.06
2018-09-28T14:53:20.180Z,45.50
2018-09-28T14:55:48.703Z,45.72
2018-09-28T14:58:17.364Z,46.11
2018-09-28T15:00:45.927Z,45.51
2018-09-28T15:03:14.220Z,46.20
2018-09-28T15:05:42.743Z,45.59
2018-09-28T15:08:11.297Z,44.63
2018-09-28T15:10:39.774Z,45.27
2018-09-28T15:13:08.511Z,44.31
2018-09-28T15:15:37.143Z,43.32
2018-09-28T15:18:06.541Z,41.54
2018-09-28T15:20:35.296Z,41.44
2018-09-28T15:23:04.414Z,42.25
2018-09-28T15:25:33.641Z,41.88
2018-09-28T15:28:02.358Z,41.43
2018-09-28T15:30:30.874Z,41.48
2018-09-28T15:33:00.425Z,40.98
2018-09-28T15:35:29.370Z,41.33
2018-09-28T15:37:57.937Z,40.45
2018-09-28T15:40:26.667Z,40.02
2018-09-28T15:42:55.175Z,39.30
2018-09-28T15:45:23.837Z,38.74
2018-09-28T15:47:52.366Z,39.57
2018-09-28T15:50:21.202Z,39.31
2018-09-28T15:52:49.950Z,39.34
2018-09-28T15:55:18.602Z,39.45
2018-09-28T15:57:47.188Z,39.97
2018-09-28T16:00:15.671Z,40.40
2018-09-28T16:02:44.930Z,39.93
2018-09-28T16:05:13.922Z,40.25
2018-09-28T16:07:42.615Z,39.96
2018-09-28T16:10:11.194Z,40.33
2018-09-28T16:12:40.163Z,39.84
2018-09-28T16:15:08.751Z,40.11
2018-09-28T16:17:37.557Z,40.32
2018-09-28T16:20:06.675Z,40.77
2018-09-28T16:22:35.630Z,40.37
2018-09-28T16:25:04.283Z,41.19
2018-09-28T16:27:32.910Z,40.49
2018-09-28T16:30:01.676Z,39.83
2018-09-28T16:32:30.137Z,39.67
2018-09-28T16:34:59.405Z,39.72
2018-09-28T16:37:27.919Z,39.90
2018-09-28T16:39:56.997Z,39.32
2018-09-28T16:42:25.882Z,39.53
2018-09-28T16:44:55.365Z,39.59
2018-09-28T16:47:23.985Z,39.97
2018-09-28T16:49:52.505Z,40.18
2018-09-28T16:52:21.353Z,40.15
2018-09-28T16:54:49.973Z,40.73
2018-09-28T16:57:18.535Z,40.42
2018-09-28T16:59:47.313Z,40.84
2018-09-28T17:02:16.133Z,41.44
2018-09-28T17:04:44.691Z,42.50
2018-09-28T17:07:13.404Z,41.87
2018-09-28T17:09:42.123Z,41.05
2018-09-28T17:12:11.682Z,41.56
2018-09-28T17:14:40.996Z,41.64
2018-09-28T17:17:09.552Z,41.47
2018-09-28T17:19:38.023Z,41.82
2018-09-28T17:22:06.535Z,41.99
2018-09-28T17:24:34.996Z,42.24
2018-09-28T17:27:04.106Z,41.81
2018-09-28T17:29:32.805Z,42.41
2018-09-28T17:32:01.345Z,42.48
2018-09-28T17:34:30.266Z,42.45
2018-09-28T17:36:59.139Z,42.36
2018-09-28T17:39:27.775Z,42.69
2018-09-28T17:41:56.296Z,43.47
2018-09-28T17:44:25.079Z,43.62
2018-09-28T17:46:53.787Z,43.71
2018-09-28T17:49:22.263Z,43.64
2018-09-28T17:51:50.995Z,44.52
2018-09-28T17:54:19.801Z,44.70
2018-09-28T17:56:48.540Z,45.61
2018-09-28T17:59:17.218Z,45.39
2018-09-28T18:01:45.747Z,44.96
2018-09-28T18:04:14.260Z,45.66
2018-09-28T18:06:43.107Z,45.58
2018-09-28T18:09:12.978Z,45.65
2018-09-28T18:11:41.617Z,45.32
2018-09-28T18:14:10.335Z,45.13
2018-09-28T18:16:39.020Z,45.23
2018-09-28T18:19:08.693Z,45.72
2018-09-28T18:21:37.346Z,45.91
2018-09-28T18:24:06.110Z,46.01
2018-09-28T18:26:34.846Z,46.30
2018-09-28T18:29:03.950Z,46.57
2018-09-28T18:31:32.507Z,47.26
2018-09-28T18:34:07.816Z,46.96
2018-09-28T18:36:36.341Z,46.92
2018-09-28T18:39:06.774Z,46.77
2018-09-28T18:41:35.537Z,47.16
2018-09-28T18:44:04.187Z,47.67
2018-09-28T18:46:32.842Z,48.06
2018-09-28T18:49:01.512Z,47.89
2018-09-28T18:51:30.026Z,47.81
2018-09-28T18:53:58.569Z,47.79
2018-09-28T18:56:27.505Z,47.87
2018-09-28T18:58:56.348Z,48.81
2018-09-28T19:01:25.011Z,48.93
2018-09-28T19:03:53.740Z,48.64
2018-09-28T19:06:22.481Z,49.82
2018-09-28T19:08:51.218Z,49.80
2018-09-28T19:11:19.869Z,49.14
2018-09-28T19:13:48.645Z,49.40
2018-09-28T19:16:17.362Z,49.02
2018-09-28T19:18:46.455Z,49.88
2018-09-28T19:21:15.079Z,49.61
2018-09-28T19:23:44.172Z,49.83
2018-09-28T19:26:12.982Z,49.36
2018-09-28T19:28:41.547Z,50.03
2018-09-28T19:31:10.403Z,50.06
2018-09-28T19:33:39.329Z,50.69
2018-09-28T19:36:08.183Z,51.00
2018-09-28T19:38:36.843Z,51.05
2018-09-28T19:41:05.691Z,50.80
2018-09-28T19:43:34.337Z,50.73
2018-09-28T19:46:03.489Z,51.09
2018-09-28T19:48:32.065Z,50.74
2018-09-28T19:51:00.786Z,50.95
2018-09-28T19:53:29.448Z,51.22
2018-09-28T19:55:58.089Z,51.04
2018-09-28T19:58:27.119Z,51.36
2018-09-28T20:00:55.823Z,51.73
2018-09-28T20:03:24.391Z,51.37
2018-09-28T20:05:53.450Z,51.33
2018-09-28T20:08:22.026Z,51.64
2018-09-28T20:10:50.699Z,51.59
2018-09-28T20:13:19.300Z,51.39
2018-09-28T20:15:50.864Z,51.34
2018-09-28T20:18:19.699Z,51.33
2018-09-28T20:20:49.122Z,51.25
2018-09-28T20:23:17.808Z,51.61
2018-09-28T20:25:46.643Z,51.41
2018-09-28T20:28:15.601Z,51.34
2018-09-28T20:30:44.568Z,51.65
2018-09-28T20:33:13.307Z,51.49
2018-09-28T20:35:41.955Z,51.59
2018-09-28T20:38:10.872Z,51.90
2018-09-28T20:40:39.509Z,51.56
2018-09-28T20:43:08.835Z,51.52
2018-09-28T20:45:37.522Z,51.50
2018-09-28T20:48:06.294Z,51.81
2018-09-28T20:50:35.149Z,51.84
2018-09-28T20:53:03.846Z,52.04
2018-09-28T20:55:32.518Z,52.23
2018-09-28T20:58:01.428Z,52.20
2018-09-28T21:00:30.280Z,51.86
2018-09-28T21:02:59.556Z,51.99
2018-09-28T21:05:28.308Z,52.03
2018-09-28T21:07:57.159Z,52.52
2018-09-28T21:10:25.874Z,51.72
2018-09-28T21:12:54.471Z,52.33
2018-09-28T21:15:22.969Z,52.29
2018-09-28T21:17:51.630Z,52.46
2018-09-28T21:20:20.570Z,51.92
2018-09-28T21:22:49.455Z,52.20
2018-09-28T21:25:18.157Z,51.86
2018-09-28T21:27:46.874Z,52.33
2018-09-28T21:30:15.486Z,52.29
2018-09-28T21:32:44.161Z,52.20
2018-09-28T21:35:13.013Z,52.30
2018-09-28T21:37:41.584Z,52.52
2018-09-28T21:40:10.107Z,52.20
2018-09-28T21:42:38.493Z,52.02
2018-09-28T21:45:07.469Z,52.77
2018-09-28T21:47:36.322Z,52.77
2018-09-28T21:50:05.026Z,52.74
2018-09-28T21:52:33.652Z,53.16
2018-09-28T21:55:02.288Z,52.81
2018-09-28T21:57:31.052Z,52.77
2018-09-28T21:59:59.478Z,53.05
2018-09-28T22:02:27.878Z,53.05
2018-09-28T22:04:56.360Z,53.02
2018-09-28T22:07:27.854Z,53.27
2018-09-28T22:09:56.326Z,52.98
2018-09-28T22:12:24.952Z,53.72
2018-09-28T22:14:53.367Z,53.54
2018-09-28T22:17:22.024Z,53.51
2018-09-28T22:19:50.511Z,53.84
2018-09-28T22:22:19.043Z,53.64
2018-09-28T22:24:47.540Z,53.55
2018-09-28T22:27:15.918Z,53.43
2018-09-28T22:29:44.427Z,53.41
2018-09-28T22:32:12.955Z,53.78
2018-09-28T22:34:41.325Z,54.01
2018-09-28T22:37:09.956Z,53.58
2018-09-28T22:39:38.371Z,53.91
2018-09-28T22:42:07.002Z,53.98
2018-09-28T22:44:35.676Z,53.49
2018-09-28T22:47:04.304Z,53.62
2018-09-28T22:49:32.961Z,53.90
2018-09-28T22:52:01.377Z,53.87
2018-09-28T22:54:29.820Z,53.54
2018-09-28T22:56:58.242Z,54.04
2018-09-28T22:59:26.634Z,53.70
2018-09-28T23:01:55.130Z,53.86
2018-09-28T23:04:23.574Z,53.83
2018-09-28T23:06:52.148Z,53.40
2018-09-28T23:09:20.550Z,53.94
2018-09-28T23:11:49.010Z,53.84
2018-09-28T23:14:17.444Z,53.60
2018-09-28T23:16:45.952Z,53.47
2018-09-28T23:19:14.417Z,53.71
2018-09-28T23:21:42.987Z,53.65
2018-09-28T23:24:11.377Z,53.95
2018-09-28T23:26:39.774Z,54.35
2018-09-28T23:29:08.188Z,54.56
2018-09-28T23:31:36.565Z,54.60
2018-09-28T23:34:05.026Z,54.81
2018-09-28T23:36:33.443Z,54.88
2018-09-28T23:39:02.012Z,54.90
2018-09-28T23:41:30.379Z,55.02
2018-09-28T23:43:58.881Z,54.69
2018-09-28T23:46:27.336Z,54.54
2018-09-28T23:48:55.752Z,55.08
2018-09-28T23:51:24.221Z,55.19
2018-09-28T23:53:52.781Z,55.00
2018-09-28T23:56:21.167Z,55.90
2018-09-28T23:58:49.560Z,55.69
